sensor_id;sensor_type;location;lat;lon;timestamp;pressure;altitude;pressure_sealevel;temperature;humidity
78459;BME280;67753;42.684;23.330;2023-05-23T00:01:33;94824.66;;;14.20;100.00
78459;BME280;67753;42.684;23.330;2023-05-23T00:03:38;94818.88;;;14.14;100.00
78459;BME280;67753;42.684;23.330;2023-05-23T00:05:40;94806.91;;;13.97;100.00
78459;BME280;67753;42.684;23.330;2023-05-23T00:07:42;94800.00;;;14.07;100.00
78459;BME280;67753;42.684;23.330;2023-05-23T00:09:44;94800.69;;;13.86;100.00
78459;BME280;67753;42.684;23.330;2023-05-23T00:11:46;94807.28;;;13.96;100.00
78459;BME280;67753;42.684;23.330;2023-05-23T00:13:48;94817.25;;;13.92;100.00
78459;BME280;67753;42.684;23.330;2023-05-23T00:15:50;94816.84;;;13.82;100.00
78459;BME280;67753;42.684;23.330;2023-05-23T00:17:52;94816.50;;;13.91;100.00
78459;BME280;67753;42.684;23.330;2023-05-23T00:19:58;94802.66;;;14.00;100.00
78459;BME280;67753;42.684;23.330;2023-05-23T00:22:00;94802.66;;;13.89;100.00
78459;BME280;67753;42.684;23.330;2023-05-23T00:24:03;94803.72;;;13.70;100.00
78459;BME280;67753;42.684;23.330;2023-05-23T00:26:06;94799.50;;;13.69;100.00
78459;BME280;67753;42.684;23.330;2023-05-23T00:28:08;94799.50;;;13.73;100.00
78459;BME280;67753;42.684;23.330;2023-05-23T00:30:10;94801.81;;;13.71;100.00
78459;BME280;67753;42.684;23.330;2023-05-23T00:32:12;94808.00;;;13.82;100.00
78459;BME280;67753;42.684;23.330;2023-05-23T00:34:15;94805.34;;;13.93;100.00
78459;BME280;67753;42.684;23.330;2023-05-23T00:36:20;94806.78;;;13.65;100.00
78459;BME280;67753;42.684;23.330;2023-05-23T00:38:24;94799.50;;;13.73;100.00
78459;BME280;67753;42.684;23.330;2023-05-23T00:40:27;94805.66;;;13.73;100.00
78459;BME280;67753;42.684;23.330;2023-05-23T00:42:29;94804.16;;;13.79;100.00
78459;BME280;67753;42.684;23.330;2023-05-23T00:44:31;94811.47;;;13.79;100.00
78459;BME280;67753;42.684;23.330;2023-05-23T00:46:34;94816.50;;;13.91;100.00
78459;BME280;67753;42.684;23.330;2023-05-23T00:48:36;94807.25;;;13.85;100.00
78459;BME280;67753;42.684;23.330;2023-05-23T00:50:38;94809.50;;;13.72;100.00
78459;BME280;67753;42.684;23.330;2023-05-23T00:52:44;94799.44;;;13.59;100.00
78459;BME280;67753;42.684;23.330;2023-05-23T00:54:48;94807.97;;;13.71;100.00
78459;BME280;67753;42.684;23.330;2023-05-23T00:56:50;94813.31;;;13.61;100.00
78459;BME280;67753;42.684;23.330;2023-05-23T00:58:52;94808.66;;;13.58;100.00
78459;BME280;67753;42.684;23.330;2023-05-23T01:00:55;94803.63;;;13.52;100.00
78459;BME280;67753;42.684;23.330;2023-05-23T01:02:57;94810.19;;;13.55;100.00
78459;BME280;67753;42.684;23.330;2023-05-23T01:05:00;94807.16;;;13.60;100.00
78459;BME280;67753;42.684;23.330;2023-05-23T01:07:02;94815.22;;;13.64;100.00
78459;BME280;67753;42.684;23.330;2023-05-23T01:09:06;94817.13;;;13.60;100.00
78459;BME280;67753;42.684;23.330;2023-05-23T01:11:13;94821.75;;;13.59;100.00
78459;BME280;67753;42.684;23.330;2023-05-23T01:13:23;94817.59;;;13.76;100.00
78459;BME280;67753;42.684;23.330;2023-05-23T01:15:37;94817.88;;;13.53;100.00
78459;BME280;67753;42.684;23.330;2023-05-23T01:17:43;94814.44;;;13.60;100.00
78459;BME280;67753;42.684;23.330;2023-05-23T01:19:53;94809.34;;;13.44;100.00
78459;BME280;67753;42.684;23.330;2023-05-23T01:21:59;94810.59;;;13.57;100.00
78459;BME280;67753;42.684;23.330;2023-05-23T01:24:21;94812.16;;;13.62;100.00
78459;BME280;67753;42.684;23.330;2023-05-23T01:26:45;94812.94;;;13.66;100.00
78459;BME280;67753;42.684;23.330;2023-05-23T01:28:58;94807.94;;;13.68;100.00
78459;BME280;67753;42.684;23.330;2023-05-23T01:31:09;94818.75;;;13.75;100.00
78459;BME280;67753;42.684;23.330;2023-05-23T01:33:13;94812.59;;;13.78;100.00
78459;BME280;67753;42.684;23.330;2023-05-23T01:35:21;94819.59;;;13.93;100.00
78459;BME280;67753;42.684;23.330;2023-05-23T01:37:24;94810.31;;;13.87;100.00
78459;BME280;67753;42.684;23.330;2023-05-23T01:39:29;94815.72;;;13.91;100.00
78459;BME280;67753;42.684;23.330;2023-05-23T01:41:30;94815.75;;;14.01;100.00
78459;BME280;67753;42.684;23.330;2023-05-23T01:43:32;94818.50;;;14.16;100.00
78459;BME280;67753;42.684;23.330;2023-05-23T01:45:36;94818.91;;;14.25;100.00
78459;BME280;67753;42.684;23.330;2023-05-23T01:47:39;94813.50;;;14.14;100.00
78459;BME280;67753;42.684;23.330;2023-05-23T01:49:41;94811.19;;;14.20;100.00
78459;BME280;67753;42.684;23.330;2023-05-23T01:51:45;94802.56;;;13.71;100.00
78459;BME280;67753;42.684;23.330;2023-05-23T01:53:47;94799.56;;;13.91;100.00
78459;BME280;67753;42.684;23.330;2023-05-23T01:55:50;94806.56;;;14.17;100.00
78459;BME280;67753;42.684;23.330;2023-05-23T01:57:54;94802.75;;;14.28;100.00
78459;BME280;67753;42.684;23.330;2023-05-23T01:59:56;94803.53;;;14.43;100.00
78459;BME280;67753;42.684;23.330;2023-05-23T02:02:00;94809.69;;;14.33;100.00
78459;BME280;67753;42.684;23.330;2023-05-23T02:04:02;94808.94;;;14.43;100.00
78459;BME280;67753;42.684;23.330;2023-05-23T02:06:04;94802.78;;;14.46;100.00
78459;BME280;67753;42.684;23.330;2023-05-23T02:08:06;94813.59;;;14.50;100.00
78459;BME280;67753;42.684;23.330;2023-05-23T02:10:08;94811.69;;;14.50;100.00
78459;BME280;67753;42.684;23.330;2023-05-23T02:12:10;94817.06;;;14.50;100.00
78459;BME280;67753;42.684;23.330;2023-05-23T02:14:14;94808.16;;;14.46;100.00
78459;BME280;67753;42.684;23.330;2023-05-23T02:16:19;94814.38;;;14.50;100.00
78459;BME280;67753;42.684;23.330;2023-05-23T02:18:22;94810.50;;;14.51;100.00
78459;BME280;67753;42.684;23.330;2023-05-23T02:20:25;94812.44;;;14.54;100.00
78459;BME280;67753;42.684;23.330;2023-05-23T02:22:27;94812.03;;;14.45;100.00
78459;BME280;67753;42.684;23.330;2023-05-23T02:24:29;94808.97;;;14.50;100.00
78459;BME280;67753;42.684;23.330;2023-05-23T02:26:31;94809.34;;;14.49;100.00
78459;BME280;67753;42.684;23.330;2023-05-23T02:28:33;94804.38;;;14.54;100.00
78459;BME280;67753;42.684;23.330;2023-05-23T02:30:35;94813.59;;;14.53;100.00
78459;BME280;67753;42.684;23.330;2023-05-23T02:32:38;94813.22;;;14.51;100.00
78459;BME280;67753;42.684;23.330;2023-05-23T02:34:41;94807.44;;;14.56;100.00
78459;BME280;67753;42.684;23.330;2023-05-23T02:36:46;94807.44;;;14.56;100.00
78459;BME280;67753;42.684;23.330;2023-05-23T02:38:47;94802.81;;;14.57;100.00
78459;BME280;67753;42.684;23.330;2023-05-23T02:40:49;94806.28;;;14.50;100.00
78459;BME280;67753;42.684;23.330;2023-05-23T02:42:52;94802.03;;;14.56;100.00
78459;BME280;67753;42.684;23.330;2023-05-23T02:44:56;94808.16;;;14.46;100.00
78459;BME280;67753;42.684;23.330;2023-05-23T02:46:58;94800.47;;;14.41;100.00
78459;BME280;67753;42.684;23.330;2023-05-23T02:49:00;94800.47;;;14.48;100.00
78459;BME280;67753;42.684;23.330;2023-05-23T02:51:04;94790.06;;;14.47;100.00
78459;BME280;67753;42.684;23.330;2023-05-23T02:53:07;94799.69;;;14.44;100.00
78459;BME280;67753;42.684;23.330;2023-05-23T02:55:08;94798.13;;;14.29;100.00
78459;BME280;67753;42.684;23.330;2023-05-23T02:57:10;94794.25;;;14.19;100.00
78459;BME280;67753;42.684;23.330;2023-05-23T02:59:12;94801.97;;;14.28;100.00
78459;BME280;67753;42.684;23.330;2023-05-23T03:01:14;94800.03;;;14.28;100.00
78459;BME280;67753;42.684;23.330;2023-05-23T03:03:17;94801.97;;;14.39;100.00
78459;BME280;67753;42.684;23.330;2023-05-23T03:05:20;94803.94;;;14.45;100.00
78459;BME280;67753;42.684;23.330;2023-05-23T03:07:23;94797.38;;;14.32;100.00
78459;BME280;67753;42.684;23.330;2023-05-23T03:09:25;94806.28;;;14.50;100.00
78459;BME280;67753;42.684;23.330;2023-05-23T03:11:27;94799.69;;;14.37;100.00
78459;BME280;67753;42.684;23.330;2023-05-23T03:13:29;94799.31;;;14.42;100.00
78459;BME280;67753;42.684;23.330;2023-05-23T03:15:34;94805.06;;;14.44;100.00
78459;BME280;67753;42.684;23.330;2023-05-23T03:17:36;94792.34;;;14.34;100.00
78459;BME280;67753;42.684;23.330;2023-05-23T03:19:40;94804.31;;;14.47;100.00
78459;BME280;67753;42.684;23.330;2023-05-23T03:21:42;94809.69;;;14.37;100.00
78459;BME280;67753;42.684;23.330;2023-05-23T03:23:46;94805.47;;;14.43;100.00
78459;BME280;67753;42.684;23.330;2023-05-23T03:25:48;94815.53;;;14.56;100.00
78459;BME280;67753;42.684;23.330;2023-05-23T03:27:49;94813.59;;;14.53;100.00
78459;BME280;67753;42.684;23.330;2023-05-23T03:29:52;94808.19;;;14.57;100.00
78459;BME280;67753;42.684;23.330;2023-05-23T03:31:53;94812.78;;;14.42;100.00
78459;BME280;67753;42.684;23.330;2023-05-23T03:33:56;94818.94;;;14.46;100.00
78459;BME280;67753;42.684;23.330;2023-05-23T03:35:57;94822.00;;;14.34;100.00
78459;BME280;67753;42.684;23.330;2023-05-23T03:37:59;94820.53;;;14.51;100.00
78459;BME280;67753;42.684;23.330;2023-05-23T03:40:05;94819.69;;;14.29;100.00
78459;BME280;67753;42.684;23.330;2023-05-23T03:42:07;94810.44;;;14.23;100.00
78459;BME280;67753;42.684;23.330;2023-05-23T03:44:09;94815.63;;;13.66;100.00
78459;BME280;67753;42.684;23.330;2023-05-23T03:46:11;94811.09;;;13.84;100.00
78459;BME280;67753;42.684;23.330;2023-05-23T03:48:13;94816.16;;;14.03;100.00
78459;BME280;67753;42.684;23.330;2023-05-23T03:50:15;94809.22;;;14.02;100.00
78459;BME280;67753;42.684;23.330;2023-05-23T03:52:17;94814.19;;;13.90;100.00
78459;BME280;67753;42.684;23.330;2023-05-23T03:54:19;94816.47;;;13.80;100.00
78459;BME280;67753;42.684;23.330;2023-05-23T03:56:22;94822.66;;;13.95;100.00
78459;BME280;67753;42.684;23.330;2023-05-23T03:58:25;94819.91;;;13.81;100.00
78459;BME280;67753;42.684;23.330;2023-05-23T04:00:27;94824.94;;;13.86;100.00
78459;BME280;67753;42.684;23.330;2023-05-23T04:02:28;94825.03;;;14.11;100.00
78459;BME280;67753;42.684;23.330;2023-05-23T04:04:30;94821.06;;;13.76;100.00
78459;BME280;67753;42.684;23.330;2023-05-23T04:06:32;94814.28;;;14.22;100.00
78459;BME280;67753;42.684;23.330;2023-05-23T04:08:34;94814.28;;;14.22;100.00
78459;BME280;67753;42.684;23.330;2023-05-23T04:10:36;94821.19;;;14.19;100.00
78459;BME280;67753;42.684;23.330;2023-05-23T04:12:39;94832.09;;;14.59;100.00
78459;BME280;67753;42.684;23.330;2023-05-23T04:14:42;94832.13;;;14.73;100.00
78459;BME280;67753;42.684;23.330;2023-05-23T04:16:47;94829.03;;;14.71;100.00
78459;BME280;67753;42.684;23.330;2023-05-23T04:18:49;94822.47;;;14.72;100.00
78459;BME280;67753;42.684;23.330;2023-05-23T04:20:51;94831.34;;;14.83;100.00
78459;BME280;67753;42.684;23.330;2023-05-23T04:22:53;94833.25;;;14.75;100.00
78459;BME280;67753;42.684;23.330;2023-05-23T04:24:55;94835.16;;;14.68;100.00
78459;BME280;67753;42.684;23.330;2023-05-23T04:26:58;94832.13;;;14.73;100.00
78459;BME280;67753;42.684;23.330;2023-05-23T04:29:02;94838.25;;;14.52;100.00
78459;BME280;67753;42.684;23.330;2023-05-23T04:31:05;94824.28;;;14.25;100.00
78459;BME280;67753;42.684;23.330;2023-05-23T04:33:08;94829.22;;;14.01;100.00
78459;BME280;67753;42.684;23.330;2023-05-23T04:35:10;94835.03;;;14.07;100.00
78459;BME280;67753;42.684;23.330;2023-05-23T04:37:13;94838.63;;;14.57;100.00
78459;BME280;67753;42.684;23.330;2023-05-23T04:39:14;94838.69;;;14.82;100.00
78459;BME280;67753;42.684;23.330;2023-05-23T04:41:17;94836.66;;;14.40;100.00
78459;BME280;67753;42.684;23.330;2023-05-23T04:43:22;94842.50;;;14.49;100.00
78459;BME280;67753;42.684;23.330;2023-05-23T04:45:27;94845.19;;;14.56;100.00
78459;BME280;67753;42.684;23.330;2023-05-23T04:47:29;94849.81;;;14.52;100.00
78459;BME280;67753;42.684;23.330;2023-05-23T04:49:35;94848.28;;;14.55;100.00
78459;BME280;67753;42.684;23.330;2023-05-23T04:51:36;94852.06;;;14.36;100.00
78459;BME280;67753;42.684;23.330;2023-05-23T04:53:38;94856.78;;;14.78;100.00
78459;BME280;67753;42.684;23.330;2023-05-23T04:55:41;94856.78;;;14.78;100.00
78459;BME280;67753;42.684;23.330;2023-05-23T04:57:43;94857.19;;;14.88;100.00
78459;BME280;67753;42.684;23.330;2023-05-23T04:59:45;94860.63;;;14.81;100.00
78459;BME280;67753;42.684;23.330;2023-05-23T05:01:48;94866.00;;;14.63;100.00
78459;BME280;67753;42.684;23.330;2023-05-23T05:03:51;94855.16;;;14.45;100.00
78459;BME280;67753;42.684;23.330;2023-05-23T05:05:52;94857.41;;;14.29;100.00
78459;BME280;67753;42.684;23.330;2023-05-23T05:07:54;94863.63;;;14.47;100.00
78459;BME280;67753;42.684;23.330;2023-05-23T05:09:56;94863.25;;;14.45;100.00
78459;BME280;67753;42.684;23.330;2023-05-23T05:11:58;94870.56;;;14.41;100.00
78459;BME280;67753;42.684;23.330;2023-05-23T05:14:00;94869.13;;;14.83;100.00
78459;BME280;67753;42.684;23.330;2023-05-23T05:16:02;94876.84;;;15.06;100.00
78459;BME280;67753;42.684;23.330;2023-05-23T05:18:06;94878.38;;;15.18;100.00
78459;BME280;67753;42.684;23.330;2023-05-23T05:20:08;94881.47;;;15.27;100.00
78459;BME280;67753;42.684;23.330;2023-05-23T05:22:10;94884.53;;;15.36;100.00
78459;BME280;67753;42.684;23.330;2023-05-23T05:24:12;94888.00;;;15.40;100.00
78459;BME280;67753;42.684;23.330;2023-05-23T05:26:15;94886.84;;;15.27;100.00
78459;BME280;67753;42.684;23.330;2023-05-23T05:28:16;94879.13;;;15.15;100.00
78459;BME280;67753;42.684;23.330;2023-05-23T05:30:19;94882.63;;;15.22;100.00
78459;BME280;67753;42.684;23.330;2023-05-23T05:32:21;94882.22;;;15.34;100.00
78459;BME280;67753;42.684;23.330;2023-05-23T05:34:26;94880.66;;;15.58;100.00
78459;BME280;67753;42.684;23.330;2023-05-23T05:36:29;94888.41;;;15.64;100.00
78459;BME280;67753;42.684;23.330;2023-05-23T05:38:31;94898.41;;;15.77;100.00
78459;BME280;67753;42.684;23.330;2023-05-23T05:40:33;94889.13;;;15.75;100.00
78459;BME280;67753;42.684;23.330;2023-05-23T05:42:36;94895.69;;;15.59;100.00
78459;BME280;67753;42.684;23.330;2023-05-23T05:44:37;94899.97;;;15.64;100.00
78459;BME280;67753;42.684;23.330;2023-05-23T05:46:39;94894.53;;;15.60;100.00
78459;BME280;67753;42.684;23.330;2023-05-23T05:48:41;94887.56;;;15.84;100.00
78459;BME280;67753;42.684;23.330;2023-05-23T05:50:44;94894.91;;;15.91;100.00
78459;BME280;67753;42.684;23.330;2023-05-23T05:52:47;94903.38;;;16.00;100.00
78459;BME280;67753;42.684;23.330;2023-05-23T05:54:49;94904.50;;;16.06;100.00
78459;BME280;67753;42.684;23.330;2023-05-23T05:56:51;94898.72;;;16.01;100.00
78459;BME280;67753;42.684;23.330;2023-05-23T05:58:53;94903.66;;;16.24;100.00
78459;BME280;67753;42.684;23.330;2023-05-23T06:00:55;94898.28;;;16.13;100.00
78459;BME280;67753;42.684;23.330;2023-05-23T06:02:58;94903.56;;;16.49;100.00
78459;BME280;67753;42.684;23.330;2023-05-23T06:05:00;94904.31;;;16.46;100.00
78459;BME280;67753;42.684;23.330;2023-05-23T06:07:04;94905.97;;;16.22;100.00
78459;BME280;67753;42.684;23.330;2023-05-23T06:09:06;94905.09;;;16.46;100.00
78459;BME280;67753;42.684;23.330;2023-05-23T06:11:08;94908.25;;;16.38;100.00
78459;BME280;67753;42.684;23.330;2023-05-23T06:13:11;94905.84;;;16.54;100.00
78459;BME280;67753;42.684;23.330;2023-05-23T06:15:13;94911.19;;;16.72;100.00
78459;BME280;67753;42.684;23.330;2023-05-23T06:17:15;94915.59;;;17.07;100.00
78459;BME280;67753;42.684;23.330;2023-05-23T06:19:17;94925.22;;;17.15;100.00
78459;BME280;67753;42.684;23.330;2023-05-23T06:21:19;94913.09;;;16.71;100.00
78459;BME280;67753;42.684;23.330;2023-05-23T06:23:23;94912.06;;;16.44;100.00
78459;BME280;67753;42.684;23.330;2023-05-23T06:25:26;94917.31;;;16.83;100.00
78459;BME280;67753;42.684;23.330;2023-05-23T06:27:28;94916.44;;;16.97;100.00
78459;BME280;67753;42.684;23.330;2023-05-23T06:29:30;94919.78;;;17.19;100.00
78459;BME280;67753;42.684;23.330;2023-05-23T06:31:32;94916.22;;;17.29;100.00
78459;BME280;67753;42.684;23.330;2023-05-23T06:33:35;94931.63;;;17.39;100.00
78459;BME280;67753;42.684;23.330;2023-05-23T06:35:37;94923.34;;;17.08;100.00
78459;BME280;67753;42.684;23.330;2023-05-23T06:37:39;94917.94;;;17.05;100.00
78459;BME280;67753;42.684;23.330;2023-05-23T06:39:46;94921.69;;;17.22;100.00
78459;BME280;67753;42.684;23.330;2023-05-23T06:41:47;94916.78;;;17.02;100.00
78459;BME280;67753;42.684;23.330;2023-05-23T06:43:49;94920.59;;;17.12;100.00
78459;BME280;67753;42.684;23.330;2023-05-23T06:45:51;94911.75;;;17.04;100.00
78459;BME280;67753;42.684;23.330;2023-05-23T06:47:53;94920.16;;;17.21;100.00
78459;BME280;67753;42.684;23.330;2023-05-23T06:49:55;94912.59;;;16.94;100.00
78459;BME280;67753;42.684;23.330;2023-05-23T06:51:57;94907.66;;;16.78;100.00
78459;BME280;67753;42.684;23.330;2023-05-23T06:53:59;94897.25;;;16.70;100.00
78459;BME280;67753;42.684;23.330;2023-05-23T06:56:02;94896.06;;;16.78;100.00
78459;BME280;67753;42.684;23.330;2023-05-23T06:58:04;94895.09;;;16.40;100.00
78459;BME280;67753;42.684;23.330;2023-05-23T07:00:07;94887.13;;;16.04;100.00
78459;BME280;67753;42.684;23.330;2023-05-23T07:02:09;94882.09;;;16.09;100.00
78459;BME280;67753;42.684;23.330;2023-05-23T07:04:11;94891.97;;;16.41;100.00
78459;BME280;67753;42.684;23.330;2023-05-23T07:06:13;94888.13;;;16.42;100.00
78459;BME280;67753;42.684;23.330;2023-05-23T07:08:17;94895.00;;;16.57;100.00
78459;BME280;67753;42.684;23.330;2023-05-23T07:10:19;94888.03;;;16.60;100.00
78459;BME280;67753;42.684;23.330;2023-05-23T07:12:22;94885.78;;;16.44;100.00
78459;BME280;67753;42.684;23.330;2023-05-23T07:14:24;94883.53;;;16.32;100.00
78459;BME280;67753;42.684;23.330;2023-05-23T07:16:26;94881.50;;;16.54;100.00
78459;BME280;67753;42.684;23.330;2023-05-23T07:18:28;94874.97;;;16.44;100.00
78459;BME280;67753;42.684;23.330;2023-05-23T07:20:31;94868.06;;;16.36;100.00
78459;BME280;67753;42.684;23.330;2023-05-23T07:22:33;94871.19;;;16.31;100.00
78459;BME280;67753;42.684;23.330;2023-05-23T07:24:35;94861.81;;;16.46;100.00
78459;BME280;67753;42.684;23.330;2023-05-23T07:26:38;94860.53;;;16.69;100.00
78459;BME280;67753;42.684;23.330;2023-05-23T07:28:42;94863.28;;;16.61;100.00
78459;BME280;67753;42.684;23.330;2023-05-23T07:30:44;94861.63;;;16.85;100.00
78459;BME280;67753;42.684;23.330;2023-05-23T07:32:46;94865.31;;;17.09;100.00
78459;BME280;67753;42.684;23.330;2023-05-23T07:34:51;94864.53;;;17.09;100.00
78459;BME280;67753;42.684;23.330;2023-05-23T07:36:53;94868.56;;;16.90;100.00
78459;BME280;67753;42.684;23.330;2023-05-23T07:38:55;94856.59;;;16.84;100.00
78459;BME280;67753;42.684;23.330;2023-05-23T07:40:57;94861.84;;;17.05;100.00
78459;BME280;67753;42.684;23.330;2023-05-23T07:42:59;94863.25;;;17.24;100.00
78459;BME280;67753;42.684;23.330;2023-05-23T07:45:03;94858.88;;;17.37;100.00
78459;BME280;67753;42.684;23.330;2023-05-23T07:47:05;94855.84;;;17.32;100.00
78459;BME280;67753;42.684;23.330;2023-05-23T07:49:06;94857.38;;;17.33;100.00
78459;BME280;67753;42.684;23.330;2023-05-23T07:51:08;94863.03;;;17.49;100.00
78459;BME280;67753;42.684;23.330;2023-05-23T07:53:10;94858.41;;;17.46;100.00
78459;BME280;67753;42.684;23.330;2023-05-23T07:55:12;94861.31;;;17.25;100.00
78459;BME280;67753;42.684;23.330;2023-05-23T07:57:14;94855.31;;;17.44;100.00
78459;BME280;67753;42.684;23.330;2023-05-23T07:59:16;94860.69;;;17.51;100.00
78459;BME280;67753;42.684;23.330;2023-05-23T08:01:20;94860.09;;;17.74;100.00
78459;BME280;67753;42.684;23.330;2023-05-23T08:03:24;94857.00;;;17.72;100.00
78459;BME280;67753;42.684;23.330;2023-05-23T08:05:26;94854.59;;;17.81;100.00
78459;BME280;67753;42.684;23.330;2023-05-23T08:07:28;94856.03;;;17.93;100.00
78459;BME280;67753;42.684;23.330;2023-05-23T08:09:30;94847.81;;;17.59;100.00
78459;BME280;67753;42.684;23.330;2023-05-23T08:11:34;94849.41;;;17.98;100.00
78459;BME280;67753;42.684;23.330;2023-05-23T08:13:36;94855.16;;;18.00;100.00
78459;BME280;67753;42.684;23.330;2023-05-23T08:15:38;94855.00;;;18.14;100.00
78459;BME280;67753;42.684;23.330;2023-05-23T08:17:41;94847.19;;;18.20;100.00
78459;BME280;67753;42.684;23.330;2023-05-23T08:19:43;94848.41;;;17.81;100.00
78459;BME280;67753;42.684;23.330;2023-05-23T08:21:45;94846.56;;;18.08;100.00
78459;BME280;67753;42.684;23.330;2023-05-23T08:23:47;94856.59;;;18.11;100.00
78459;BME280;67753;42.684;23.330;2023-05-23T08:25:49;94862.94;;;18.32;100.00
78459;BME280;67753;42.684;23.330;2023-05-23T08:27:51;94859.56;;;18.51;100.00
78459;BME280;67753;42.684;23.330;2023-05-23T08:29:53;94868.78;;;18.57;100.00
78459;BME280;67753;42.684;23.330;2023-05-23T08:31:55;94859.56;;;18.51;100.00
78459;BME280;67753;42.684;23.330;2023-05-23T08:33:59;94866.56;;;18.79;100.00
78459;BME280;67753;42.684;23.330;2023-05-23T08:36:01;94857.09;;;18.91;100.00
78459;BME280;67753;42.684;23.330;2023-05-23T08:38:04;94853.25;;;18.88;100.00
78459;BME280;67753;42.684;23.330;2023-05-23T08:40:12;94855.50;;;18.94;100.00
78459;BME280;67753;42.684;23.330;2023-05-23T08:42:14;94857.19;;;19.11;98.73
78459;BME280;67753;42.684;23.330;2023-05-23T08:44:17;94857.47;;;19.17;98.17
78459;BME280;67753;42.684;23.330;2023-05-23T08:46:18;94856.88;;;19.29;97.38
78459;BME280;67753;42.684;23.330;2023-05-23T08:48:20;94854.16;;;19.29;97.33
78459;BME280;67753;42.684;23.330;2023-05-23T08:50:26;94851.34;;;19.36;97.06
78459;BME280;67753;42.684;23.330;2023-05-23T08:52:29;94852.81;;;19.64;96.04
78459;BME280;67753;42.684;23.330;2023-05-23T08:54:33;94852.13;;;19.80;94.86
78459;BME280;67753;42.684;23.330;2023-05-23T08:56:35;94854.53;;;19.98;93.48
78459;BME280;67753;42.684;23.330;2023-05-23T08:58:40;94857.94;;;19.82;90.56
78459;BME280;67753;42.684;23.330;2023-05-23T09:00:42;94852.88;;;20.40;86.65
78459;BME280;67753;42.684;23.330;2023-05-23T09:02:44;94858.63;;;20.26;89.21
78459;BME280;67753;42.684;23.330;2023-05-23T09:04:46;94850.94;;;20.40;86.42
78459;BME280;67753;42.684;23.330;2023-05-23T09:06:50;94846.94;;;20.45;83.68
78459;BME280;67753;42.684;23.330;2023-05-23T09:08:51;94849.44;;;20.76;82.93
78459;BME280;67753;42.684;23.330;2023-05-23T09:10:54;94852.06;;;20.79;86.30
78459;BME280;67753;42.684;23.330;2023-05-23T09:12:56;94855.06;;;20.85;84.33
78459;BME280;67753;42.684;23.330;2023-05-23T09:14:58;94853.03;;;21.05;82.33
78459;BME280;67753;42.684;23.330;2023-05-23T09:17:01;94853.38;;;21.24;78.86
78459;BME280;67753;42.684;23.330;2023-05-23T09:19:09;94848.25;;;20.93;78.10
78459;BME280;67753;42.684;23.330;2023-05-23T09:21:12;94845.88;;;21.11;77.01
78459;BME280;67753;42.684;23.330;2023-05-23T09:23:16;94845.41;;;21.33;74.48
78459;BME280;67753;42.684;23.330;2023-05-23T09:25:18;94847.25;;;21.52;76.08
78459;BME280;67753;42.684;23.330;2023-05-23T09:27:20;94843.03;;;21.64;76.59
78459;BME280;67753;42.684;23.330;2023-05-23T09:29:22;94840.28;;;21.80;73.78
78459;BME280;67753;42.684;23.330;2023-05-23T09:31:25;94844.69;;;21.61;69.55
78459;BME280;67753;42.684;23.330;2023-05-23T09:33:33;94838.06;;;21.46;70.19
78459;BME280;67753;42.684;23.330;2023-05-23T09:35:43;94841.47;;;21.34;69.03
78459;BME280;67753;42.684;23.330;2023-05-23T09:37:44;94840.94;;;21.55;69.90
78459;BME280;67753;42.684;23.330;2023-05-23T09:39:48;94848.91;;;21.79;70.16
78459;BME280;67753;42.684;23.330;2023-05-23T09:41:50;94841.06;;;21.81;64.10
78459;BME280;67753;42.684;23.330;2023-05-23T09:43:52;94840.72;;;21.79;65.46
78459;BME280;67753;42.684;23.330;2023-05-23T09:45:55;94837.25;;;21.91;64.49
78459;BME280;67753;42.684;23.330;2023-05-23T09:48:01;94826.31;;;22.07;62.73
78459;BME280;67753;42.684;23.330;2023-05-23T09:50:04;94816.44;;;21.97;63.34
78459;BME280;67753;42.684;23.330;2023-05-23T09:52:08;94823.22;;;22.05;65.07
78459;BME280;67753;42.684;23.330;2023-05-23T09:54:09;94818.16;;;21.91;62.74
78459;BME280;67753;42.684;23.330;2023-05-23T09:56:14;94830.81;;;22.14;65.46
78459;BME280;67753;42.684;23.330;2023-05-23T09:58:18;94821.13;;;22.26;68.08
78459;BME280;67753;42.684;23.330;2023-05-23T10:00:20;94816.25;;;22.04;59.75
78459;BME280;67753;42.684;23.330;2023-05-23T10:02:47;94818.66;;;22.02;62.58
78459;BME280;67753;42.684;23.330;2023-05-23T10:04:54;94819.28;;;22.35;63.33
78459;BME280;67753;42.684;23.330;2023-05-23T10:07:01;94821.16;;;22.51;62.56
78459;BME280;67753;42.684;23.330;2023-05-23T10:09:05;94822.34;;;22.63;60.80
78459;BME280;67753;42.684;23.330;2023-05-23T10:13:51;94824.47;;;22.59;55.00
78459;BME280;67753;42.684;23.330;2023-05-23T10:15:56;94817.88;;;22.56;58.56
78459;BME280;67753;42.684;23.330;2023-05-23T10:18:08;94815.69;;;22.77;58.04
78459;BME280;67753;42.684;23.330;2023-05-23T10:20:14;94816.16;;;22.88;57.43
78459;BME280;67753;42.684;23.330;2023-05-23T10:22:17;94814.31;;;23.10;57.30
78459;BME280;67753;42.684;23.330;2023-05-23T10:24:20;94816.94;;;23.01;55.42
78459;BME280;67753;42.684;23.330;2023-05-23T10:26:22;94816.91;;;22.88;56.72
78459;BME280;67753;42.684;23.330;2023-05-23T10:28:25;94809.81;;;23.16;60.29
78459;BME280;67753;42.684;23.330;2023-05-23T10:30:29;94808.91;;;23.19;54.96
78459;BME280;67753;42.684;23.330;2023-05-23T10:32:31;94819.22;;;23.15;53.12
78459;BME280;67753;42.684;23.330;2023-05-23T10:34:40;94811.22;;;23.08;50.53
78459;BME280;67753;42.684;23.330;2023-05-23T10:36:52;94811.78;;;23.03;53.23
78459;BME280;67753;42.684;23.330;2023-05-23T10:39:03;94805.00;;;22.95;51.24
78459;BME280;67753;42.684;23.330;2023-05-23T10:41:09;94802.66;;;23.19;51.88